createdAt,value
2022-12-08T00:00:46.069Z,77.23
2022-12-08T00:03:30.682Z,77.10
2022-12-08T00:06:41.692Z,77.14
2022-12-08T00:09:27.199Z,77.44
2022-12-08T00:12:11.956Z,77.30
2022-12-08T00:14:55.098Z,77.32
2022-12-08T00:17:37.952Z,77.44
2022-12-08T00:20:22.217Z,77.42
2022-12-08T00:23:05.100Z,77.51
2022-12-08T00:25:47.994Z,77.36
2022-12-08T00:28:30.872Z,77.22
2022-12-08T00:31:14.050Z,77.56
2022-12-08T00:33:56.991Z,77.27
2022-12-08T00:36:41.343Z,77.33
2022-12-08T00:39:24.311Z,77.40
2022-12-08T00:42:16.196Z,77.32
2022-12-08T00:44:59.084Z,77.28
2022-12-08T00:47:41.983Z,77.30
2022-12-08T00:50:24.837Z,77.39
2022-12-08T00:53:09.041Z,77.25
2022-12-08T00:55:51.953Z,77.36
2022-12-08T00:58:35.831Z,77.42
2022-12-08T01:01:19.001Z,77.51
2022-12-08T01:04:04.465Z,77.56
2022-12-08T01:06:48.464Z,77.60
2022-12-08T01:09:32.739Z,77.52
2022-12-08T01:12:15.666Z,77.35
2022-12-08T01:15:02.240Z,77.53
2022-12-08T01:17:45.688Z,77.44
2022-12-08T01:20:28.751Z,77.51
2022-12-08T01:23:11.596Z,77.34
2022-12-08T01:25:55.827Z,77.24
2022-12-08T01:28:39.543Z,77.30
2022-12-08T01:31:23.880Z,77.21
2022-12-08T01:34:06.730Z,77.30
2022-12-08T01:36:49.612Z,77.12
2022-12-08T01:39:32.480Z,77.13
2022-12-08T01:42:23.332Z,77.26
2022-12-08T01:45:14.984Z,77.42
2022-12-08T01:48:01.334Z,77.29
2022-12-08T01:50:44.657Z,77.31
2022-12-08T01:53:32.748Z,77.38
2022-12-08T01:56:20.450Z,77.42
2022-12-08T01:59:04.918Z,77.51
2022-12-08T02:01:47.641Z,77.66
2022-12-08T02:04:30.526Z,77.37
2022-12-08T02:07:15.718Z,77.52
2022-12-08T02:09:58.931Z,77.45
2022-12-08T02:12:41.876Z,77.54
2022-12-08T02:15:33.747Z,77.39
2022-12-08T02:18:38.824Z,77.29
2022-12-08T02:21:27.361Z,77.11
2022-12-08T02:24:20.318Z,77.25
2022-12-08T02:27:36.894Z,77.51
2022-12-08T02:30:27.353Z,77.27
2022-12-08T02:33:57.961Z,77.21
2022-12-08T02:36:53.004Z,77.32
2022-12-08T02:39:38.849Z,77.69
2022-12-08T02:42:28.576Z,77.92
2022-12-08T02:45:15.742Z,78.21
2022-12-08T02:47:59.747Z,78.22
2022-12-08T02:50:43.452Z,78.10
2022-12-08T02:53:31.601Z,78.30
2022-12-08T02:56:30.750Z,78.06
2022-12-08T02:59:37.136Z,77.92
2022-12-08T03:02:36.897Z,77.99
2022-12-08T03:05:32.892Z,77.41
2022-12-08T03:08:21.210Z,77.38
2022-12-08T03:11:11.713Z,77.57
2022-12-08T03:13:59.260Z,77.21
2022-12-08T03:16:46.403Z,76.94
2022-12-08T03:19:33.681Z,76.63
2022-12-08T03:22:20.983Z,76.82
2022-12-08T03:25:04.028Z,76.96
2022-12-08T03:27:48.393Z,76.91
2022-12-08T03:30:34.582Z,76.92
2022-12-08T03:33:23.653Z,76.86
2022-12-08T03:36:10.658Z,77.12
2022-12-08T03:38:55.085Z,77.39
2022-12-08T03:41:37.948Z,77.59
2022-12-08T03:44:22.130Z,77.45
2022-12-08T03:47:05.107Z,77.89
2022-12-08T03:49:47.968Z,77.97
2022-12-08T03:52:30.893Z,78.22
2022-12-08T03:55:13.746Z,78.14
2022-12-08T03:57:56.717Z,78.38
2022-12-08T04:00:40.931Z,78.18
2022-12-08T04:03:23.856Z,78.22
2022-12-08T04:06:07.715Z,78.17
2022-12-08T04:08:51.629Z,78.34
2022-12-08T04:11:34.491Z,78.57
2022-12-08T04:14:17.607Z,78.71
2022-12-08T04:17:01.830Z,78.79
2022-12-08T04:19:44.689Z,78.87
2022-12-08T04:22:27.538Z,78.97
2022-12-08T04:25:10.893Z,79.01
2022-12-08T04:27:54.018Z,78.91
2022-12-08T04:30:37.019Z,78.76
2022-12-08T04:33:21.238Z,78.98
2022-12-08T04:36:04.984Z,78.74
2022-12-08T04:38:47.850Z,78.76
2022-12-08T04:41:30.693Z,78.97
2022-12-08T04:44:13.846Z,78.77
2022-12-08T04:46:56.743Z,78.78
2022-12-08T04:49:40.972Z,78.61
2022-12-08T04:52:24.244Z,78.60
2022-12-08T04:55:07.772Z,78.99
2022-12-08T04:57:50.660Z,78.51
2022-12-08T05:00:33.512Z,78.23
2022-12-08T05:03:17.066Z,78.20
2022-12-08T05:06:02.346Z,78.16
2022-12-08T05:08:45.357Z,78.12
2022-12-08T05:11:28.208Z,78.18
2022-12-08T05:14:13.277Z,78.23
2022-12-08T05:16:56.096Z,78.09
2022-12-08T05:19:38.948Z,78.02
2022-12-08T05:22:23.152Z,78.13
2022-12-08T05:25:06.525Z,77.93
2022-12-08T05:27:49.403Z,77.95
2022-12-08T05:30:32.258Z,77.88
2022-12-08T05:33:15.174Z,77.99
2022-12-08T05:35:58.086Z,78.12
2022-12-08T05:38:42.369Z,78.13
2022-12-08T05:41:25.516Z,77.91
2022-12-08T05:44:08.546Z,77.76
2022-12-08T05:46:51.529Z,78.05
2022-12-08T05:49:34.596Z,77.95
2022-12-08T05:52:17.933Z,77.92
2022-12-08T05:55:02.175Z,77.98
2022-12-08T05:57:45.032Z,78.06
2022-12-08T06:00:27.890Z,77.83
2022-12-08T06:03:12.630Z,77.94
2022-12-08T06:05:55.528Z,77.90
2022-12-08T06:08:38.406Z,78.05
2022-12-08T06:11:24.233Z,78.15
2022-12-08T06:14:11.612Z,77.92
2022-12-08T06:16:54.572Z,78.35
2022-12-08T06:19:37.684Z,78.27
2022-12-08T06:22:20.601Z,78.07
2022-12-08T06:25:07.174Z,78.26
2022-12-08T06:27:52.726Z,77.98
2022-12-08T06:30:35.584Z,77.79
2022-12-08T06:33:18.449Z,78.01
2022-12-08T06:36:01.327Z,78.31
2022-12-08T06:38:44.750Z,78.16
2022-12-08T06:41:27.589Z,77.88
2022-12-08T06:44:11.835Z,77.94
2022-12-08T06:46:54.714Z,78.24
2022-12-08T06:49:37.589Z,78.29
2022-12-08T06:52:20.447Z,78.58
2022-12-08T06:55:03.421Z,78.61
2022-12-08T06:57:46.303Z,78.21
2022-12-08T07:00:30.550Z,77.68
2022-12-08T07:03:14.703Z,78.03
2022-12-08T07:06:03.563Z,77.92
2022-12-08T07:08:47.271Z,78.11
2022-12-08T07:11:30.143Z,78.08
2022-12-08T07:14:13.682Z,78.18
2022-12-08T07:16:57.931Z,78.42
2022-12-08T07:19:40.840Z,78.42
2022-12-08T07:22:23.710Z,78.54
2022-12-08T07:25:07.400Z,78.40
2022-12-08T07:27:51.386Z,78.35
2022-12-08T07:30:34.317Z,78.72
2022-12-08T07:33:18.540Z,78.53
2022-12-08T07:36:03.407Z,78.83
2022-12-08T07:38:46.273Z,78.79
2022-12-08T07:41:29.189Z,78.82
2022-12-08T07:44:12.422Z,78.79
2022-12-08T07:46:55.296Z,78.75
2022-12-08T07:49:40.787Z,78.99
2022-12-08T07:52:23.663Z,78.82
2022-12-08T07:55:07.521Z,78.90
2022-12-08T07:57:51.318Z,78.63
2022-12-08T08:00:34.396Z,78.79
2022-12-08T08:03:17.342Z,79.06
2022-12-08T08:06:05.913Z,79.12
2022-12-08T08:08:48.783Z,78.94
2022-12-08T08:11:31.687Z,78.72
2022-12-08T08:14:14.489Z,78.71
2022-12-08T08:16:57.482Z,78.59
2022-12-08T08:19:40.419Z,78.56
2022-12-08T08:22:25.926Z,78.82
2022-12-08T08:25:09.697Z,78.53
2022-12-08T08:27:52.687Z,78.66
2022-12-08T08:30:35.554Z,78.44
2022-12-08T08:33:18.414Z,78.54
2022-12-08T08:36:01.333Z,78.51
2022-12-08T08:38:45.551Z,78.34
2022-12-08T08:41:28.411Z,78.73
2022-12-08T08:44:11.286Z,78.77
2022-12-08T08:46:54.221Z,78.44
2022-12-08T08:49:37.192Z,78.74
2022-12-08T08:52:20.091Z,78.81
2022-12-08T08:55:04.862Z,78.87
2022-12-08T08:57:47.730Z,78.59
2022-12-08T09:00:30.571Z,78.60
2022-12-08T09:03:13.909Z,78.78
2022-12-08T09:05:57.522Z,78.51
2022-12-08T09:08:40.502Z,78.49
2022-12-08T09:11:25.136Z,78.31
2022-12-08T09:14:08.078Z,78.43
2022-12-08T09:16:51.028Z,78.08
2022-12-08T09:19:34.071Z,78.16
2022-12-08T09:22:17.043Z,78.01
2022-12-08T09:24:59.914Z,78.08
2022-12-08T09:27:44.204Z,78.12
2022-12-08T09:30:27.053Z,78.06
2022-12-08T09:33:09.927Z,78.12
2022-12-08T09:35:52.801Z,78.09
2022-12-08T09:38:35.737Z,77.95
2022-12-08T09:41:24.957Z,77.90
2022-12-08T09:44:24.355Z,77.42
2022-12-08T09:47:16.732Z,77.64
2022-12-08T09:50:07.457Z,77.34
2022-12-08T09:52:59.119Z,77.33
2022-12-08T09:55:46.871Z,76.89
2022-12-08T09:58:46.105Z,76.92
2022-12-08T10:01:33.975Z,76.79
2022-12-08T10:04:23.854Z,76.96
2022-12-08T10:07:15.303Z,76.70
2022-12-08T10:10:04.560Z,76.68
2022-12-08T10:12:52.996Z,76.61
2022-12-08T10:15:47.740Z,76.50
2022-12-08T10:18:35.116Z,76.32
2022-12-08T10:21:22.181Z,76.03
2022-12-08T10:24:12.859Z,76.25
2022-12-08T10:26:57.867Z,76.02
2022-12-08T10:29:41.184Z,76.01
2022-12-08T10:32:25.420Z,76.26
2022-12-08T10:35:12.087Z,76.25
2022-12-08T10:37:59.643Z,76.22
2022-12-08T10:40:45.889Z,76.33
2022-12-08T10:43:29.204Z,76.28
2022-12-08T10:46:14.464Z,76.13
2022-12-08T10:49:12.397Z,76.06
2022-12-08T10:51:56.619Z,76.20
2022-12-08T10:54:43.951Z,76.00
2022-12-08T10:57:26.799Z,75.61
2022-12-08T11:00:14.712Z,75.75
2022-12-08T11:03:00.779Z,75.69
2022-12-08T11:05:43.740Z,75.64
2022-12-08T11:08:29.617Z,75.59
2022-12-08T11:11:12.915Z,75.29
2022-12-08T11:13:55.809Z,75.31
2022-12-08T11:16:43.338Z,75.31
2022-12-08T11:19:27.875Z,75.25
2022-12-08T11:22:23.104Z,75.35
2022-12-08T11:25:13.406Z,75.22
2022-12-08T11:27:59.583Z,75.06
2022-12-08T11:30:48.440Z,75.00
2022-12-08T11:33:31.600Z,75.04
2022-12-08T11:36:16.711Z,74.99
2022-12-08T11:39:02.262Z,74.98
2022-12-08T11:41:47.619Z,74.63
2022-12-08T11:44:38.231Z,74.51
2022-12-08T11:47:25.512Z,74.52
2022-12-08T11:50:21.128Z,74.33
2022-12-08T11:53:09.997Z,74.22
2022-12-08T11:55:58.263Z,74.02
2022-12-08T11:58:46.075Z,74.35
2022-12-08T12:01:29.155Z,74.06
2022-12-08T12:04:21.516Z,73.92
2022-12-08T12:07:27.195Z,73.54
2022-12-08T12:10:39.673Z,73.86
2022-12-08T12:13:46.901Z,73.79
2022-12-08T12:16:56.536Z,73.55
2022-12-08T12:19:41.225Z,73.50
2022-12-08T12:22:25.144Z,73.41
2022-12-08T12:25:19.235Z,73.11
2022-12-08T12:28:07.160Z,73.32
2022-12-08T12:30:58.972Z,73.49
2022-12-08T12:33:44.245Z,73.14
2022-12-08T12:36:27.410Z,73.03
2022-12-08T12:39:14.538Z,73.17
2022-12-08T12:41:59.630Z,72.87
2022-12-08T12:44:43.513Z,73.08
2022-12-08T12:47:55.606Z,72.81
2022-12-08T12:50:43.711Z,72.96
2022-12-08T12:53:49.679Z,73.11
2022-12-08T12:56:50.546Z,73.16
2022-12-08T12:59:51.568Z,73.03
2022-12-08T13:02:40.520Z,72.94
2022-12-08T13:05:27.246Z,72.78
2022-12-08T13:08:23.977Z,72.97
2022-12-08T13:11:09.786Z,72.89
2022-12-08T13:13:57.839Z,72.82
2022-12-08T13:16:41.068Z,72.80
2022-12-08T13:19:24.053Z,72.71
2022-12-08T13:22:40.256Z,72.96
2022-12-08T13:25:51.126Z,72.88
2022-12-08T13:28:33.976Z,73.14
2022-12-08T13:31:37.187Z,72.87
2022-12-08T13:34:35.613Z,72.77
2022-12-08T13:37:26.302Z,72.94
2022-12-08T13:40:15.368Z,73.11
2022-12-08T13:43:10.715Z,73.11
2022-12-08T13:56:24.861Z,73.59
2022-12-08T13:58:19.467Z,73.74
2022-12-08T14:01:07.632Z,73.65
2022-12-08T14:04:28.472Z,73.78
2022-12-08T14:06:59.302Z,73.82
2022-12-08T14:09:43.337Z,73.59
2022-12-08T14:12:28.119Z,73.26
2022-12-08T14:15:16.674Z,73.17
2022-12-08T14:17:59.885Z,73.29
2022-12-08T14:21:12.555Z,73.36
2022-12-08T14:23:45.919Z,73.00
2022-12-08T14:26:34.427Z,73.24
2022-12-08T14:29:33.892Z,73.37
2022-12-08T14:32:23.413Z,73.31
2022-12-08T14:35:19.714Z,73.05
2022-12-08T14:38:05.091Z,73.00
2022-12-08T14:40:49.124Z,73.06
2022-12-08T14:43:32.614Z,72.62
2022-12-08T14:46:22.934Z,72.66
2022-12-08T14:49:28.509Z,73.00
2022-12-08T14:52:12.810Z,73.11
2022-12-08T14:54:56.585Z,73.38
2022-12-08T14:57:39.625Z,73.79
2022-12-08T15:00:23.817Z,73.84
2022-12-08T15:03:25.246Z,74.26
2022-12-08T15:06:28.879Z,74.39
2022-12-08T15:09:19.252Z,74.32
2022-12-08T15:12:03.600Z,74.22
2022-12-08T15:14:57.283Z,74.48
2022-12-08T15:17:44.287Z,74.71
2022-12-08T15:20:35.135Z,74.75
2022-12-08T15:23:27.376Z,74.71
2022-12-08T15:26:11.280Z,74.67
2022-12-08T15:28:54.592Z,74.75
2022-12-08T15:31:37.571Z,74.72
2022-12-08T15:34:21.113Z,74.54
2022-12-08T15:37:05.262Z,74.59
2022-12-08T15:39:49.951Z,74.75
2022-12-08T15:42:32.821Z,74.81
2022-12-08T15:45:17.596Z,74.82
2022-12-08T15:48:00.529Z,75.13
2022-12-08T15:50:43.369Z,75.10
2022-12-08T15:53:26.431Z,75.35
2022-12-08T15:56:27.742Z,75.39
2022-12-08T15:59:15.957Z,75.52
2022-12-08T16:01:58.925Z,75.82
2022-12-08T16:07:45.431Z,75.48
2022-12-08T16:10:45.487Z,75.55
2022-12-08T16:13:57.405Z,75.30
2022-12-08T16:16:43.497Z,75.51
2022-12-08T16:19:26.649Z,75.41
2022-12-08T16:22:51.723Z,75.42
2022-12-08T16:25:21.024Z,75.24
2022-12-08T16:28:29.298Z,75.44
2022-12-08T16:31:14.398Z,75.49
2022-12-08T16:33:58.735Z,75.56
2022-12-08T16:36:41.708Z,75.53
2022-12-08T16:39:24.603Z,75.88
2022-12-08T16:42:24.920Z,75.98
2022-12-08T16:45:11.247Z,75.78
2022-12-08T16:47:57.401Z,75.95
2022-12-08T16:50:45.764Z,75.92
2022-12-08T16:53:28.627Z,76.13
2022-12-08T16:56:17.345Z,76.21
2022-12-08T16:59:00.310Z,76.25
2022-12-08T17:01:43.229Z,76.37
2022-12-08T17:04:32.001Z,76.17
2022-12-08T17:07:15.201Z,76.33
2022-12-08T17:09:59.264Z,76.20
2022-12-08T17:12:42.289Z,76.08
2022-12-08T17:15:26.614Z,75.77
2022-12-08T17:18:09.489Z,76.10
2022-12-08T17:20:53.736Z,75.93
2022-12-08T17:23:36.803Z,76.14
2022-12-08T17:26:19.663Z,76.23
2022-12-08T17:29:03.342Z,76.26
2022-12-08T17:31:46.261Z,76.18
2022-12-08T17:34:29.498Z,76.20
2022-12-08T17:37:13.713Z,76.54
2022-12-08T17:39:56.589Z,76.48
2022-12-08T17:42:39.595Z,76.41
2022-12-08T17:45:22.485Z,76.56
2022-12-08T17:48:05.566Z,76.59
2022-12-08T17:50:48.731Z,76.53
2022-12-08T17:53:37.205Z,76.55
2022-12-08T17:56:22.361Z,76.65
2022-12-08T17:59:05.289Z,76.84
2022-12-08T18:01:48.224Z,76.78
2022-12-08T18:04:31.588Z,76.72
2022-12-08T18:07:14.424Z,76.69
2022-12-08T18:09:58.717Z,77.10
2022-12-08T18:12:41.630Z,76.95
2022-12-08T18:15:24.492Z,77.05
2022-12-08T18:18:07.460Z,76.84
2022-12-08T18:20:50.457Z,76.96
2022-12-08T18:23:33.342Z,76.86
2022-12-08T18:26:17.749Z,76.73
2022-12-08T18:29:01.289Z,77.02
2022-12-08T18:31:44.214Z,77.04
2022-12-08T18:34:27.129Z,76.98
2022-12-08T18:37:09.945Z,76.69
2022-12-08T18:39:52.922Z,76.60
2022-12-08T18:42:37.762Z,76.46
2022-12-08T18:45:22.644Z,76.45
2022-12-08T18:48:06.721Z,76.55
2022-12-08T18:50:49.550Z,76.51
2022-12-08T18:53:32.420Z,76.35
2022-12-08T18:56:26.081Z,76.34
2022-12-08T18:59:13.510Z,76.70
2022-12-08T19:01:57.166Z,76.52
2022-12-08T19:04:42.160Z,76.55
2022-12-08T19:07:25.009Z,76.48
2022-12-08T19:10:09.228Z,76.75
2022-12-08T19:12:52.377Z,76.75
2022-12-08T19:15:36.711Z,76.72
2022-12-08T19:18:19.588Z,76.81
2022-12-08T19:21:02.494Z,76.97
2022-12-08T19:23:45.361Z,76.84
2022-12-08T19:26:29.600Z,76.84
2022-12-08T19:29:13.030Z,76.89
2022-12-08T19:31:57.454Z,76.67
2022-12-08T19:34:40.125Z,76.71
2022-12-08T19:37:23.068Z,76.73
2022-12-08T19:40:24.794Z,76.78
2022-12-08T19:43:48.434Z,76.78
2022-12-08T19:46:34.742Z,76.85
2022-12-08T19:49:23.000Z,76.79
2022-12-08T19:52:06.529Z,76.77
2022-12-08T19:54:49.417Z,76.64
2022-12-08T19:57:32.272Z,76.81
2022-12-08T20:00:15.893Z,76.86
2022-12-08T20:02:59.798Z,76.86
2022-12-08T20:05:45.078Z,76.67
2022-12-08T20:08:28.621Z,76.67
2022-12-08T20:11:11.649Z,76.89
2022-12-08T20:13:54.607Z,76.93
2022-12-08T20:16:37.789Z,77.02
2022-12-08T20:19:20.690Z,77.05
2022-12-08T20:22:04.962Z,76.96
2022-12-08T20:24:57.208Z,77.13
2022-12-08T20:27:42.730Z,77.14
2022-12-08T20:30:25.666Z,76.94
2022-12-08T20:33:08.636Z,76.74
2022-12-08T20:36:01.108Z,76.74
2022-12-08T20:38:45.355Z,76.66
2022-12-08T20:41:28.234Z,76.66
2022-12-08T20:44:11.493Z,76.43
2022-12-08T20:46:54.458Z,76.78
2022-12-08T20:49:37.559Z,76.82
2022-12-08T20:52:20.437Z,76.82
2022-12-08T20:55:04.991Z,76.88
2022-12-08T20:57:48.298Z,76.74
2022-12-08T21:00:31.314Z,76.65
2022-12-08T21:03:15.373Z,76.63
2022-12-08T21:05:58.546Z,76.75
2022-12-08T21:08:41.838Z,76.53
2022-12-08T21:11:26.212Z,76.32
2022-12-08T21:14:09.136Z,76.24
2022-12-08T21:16:54.488Z,76.17
2022-12-08T21:19:37.748Z,76.25
2022-12-08T21:22:21.127Z,76.28
2022-12-08T21:25:04.159Z,76.21
2022-12-08T21:27:48.675Z,76.22
2022-12-08T21:30:31.607Z,76.09
2022-12-08T21:33:14.577Z,76.08
2022-12-08T21:36:03.191Z,75.96
2022-12-08T21:38:47.970Z,76.12
2022-12-08T21:41:48.675Z,76.32
2022-12-08T21:44:35.305Z,76.29
2022-12-08T21:47:18.331Z,76.35
2022-12-08T21:50:01.316Z,76.00
2022-12-08T21:52:46.561Z,76.18
2022-12-08T21:55:29.627Z,76.31
2022-12-08T21:58:12.588Z,76.26
2022-12-08T22:00:56.911Z,76.27
2022-12-08T22:03:41.152Z,76.40
2022-12-08T22:06:24.237Z,76.13
2022-12-08T22:09:07.284Z,76.37
2022-12-08T22:11:50.522Z,76.39
2022-12-08T22:14:33.580Z,76.41
2022-12-08T22:17:18.767Z,76.45
2022-12-08T22:20:01.906Z,76.38
2022-12-08T22:22:45.995Z,76.35
2022-12-08T22:25:29.144Z,76.19
2022-12-08T22:28:13.729Z,76.17
2022-12-08T22:30:56.751Z,76.02
2022-12-08T22:33:42.612Z,75.90
2022-12-08T22:36:28.009Z,75.89
2022-12-08T22:39:12.682Z,75.81
2022-12-08T22:41:55.761Z,75.73
2022-12-08T22:44:38.753Z,75.87
2022-12-08T22:47:21.761Z,75.89
2022-12-08T22:50:07.969Z,75.96
2022-12-08T22:52:51.144Z,75.73
2022-12-08T22:55:34.385Z,75.40
2022-12-08T22:58:17.453Z,75.67
2022-12-08T23:01:00.351Z,75.47
2022-12-08T23:03:43.326Z,75.50
2022-12-08T23:06:31.940Z,75.43
2022-12-08T23:09:15.189Z,75.42
2022-12-08T23:11:58.244Z,75.57
2022-12-08T23:14:41.108Z,75.27
2022-12-08T23:17:24.090Z,75.29
2022-12-08T23:20:08.666Z,75.29
2022-12-08T23:22:53.079Z,75.11
2022-12-08T23:25:36.073Z,74.96
2022-12-08T23:28:18.956Z,75.11
2022-12-08T23:31:01.841Z,75.08
2022-12-08T23:33:44.834Z,75.03
2022-12-08T23:36:27.737Z,75.04
2022-12-08T23:39:12.831Z,75.02
2022-12-08T23:41:55.979Z,75.20
2022-12-08T23:44:39.087Z,75.22
2022-12-08T23:47:22.323Z,75.44
2022-12-08T23:50:07.146Z,75.45
2022-12-08T23:52:50.536Z,75.45
2022-12-08T23:55:34.810Z,75.29
2022-12-08T23:58:17.809Z,75.57
